sensor_id;sensor_type;location;lat;lon;timestamp;P1;durP1;ratioP1;P2;durP2;ratioP2
11524;SDS011;5819;49.648;8.330;2023-09-18T00:02:04;7.40;;;4.38;;
11524;SDS011;5819;49.648;8.330;2023-09-18T00:04:33;9.30;;;4.60;;
11524;SDS011;5819;49.648;8.330;2023-09-18T00:07:01;8.25;;;4.35;;
11524;SDS011;5819;49.648;8.330;2023-09-18T00:09:29;7.70;;;4.43;;
11524;SDS011;5819;49.648;8.330;2023-09-18T00:11:57;6.05;;;4.43;;
11524;SDS011;5819;49.648;8.330;2023-09-18T00:14:25;9.07;;;4.32;;
11524;SDS011;5819;49.648;8.330;2023-09-18T00:16:54;12.20;;;4.30;;
11524;SDS011;5819;49.648;8.330;2023-09-18T00:19:25;6.57;;;4.20;;
11524;SDS011;5819;49.648;8.330;2023-09-18T00:21:54;6.20;;;4.50;;
11524;SDS011;5819;49.648;8.330;2023-09-18T00:24:27;7.18;;;4.43;;
11524;SDS011;5819;49.648;8.330;2023-09-18T00:26:55;7.60;;;4.60;;
11524;SDS011;5819;49.648;8.330;2023-09-18T00:29:23;5.43;;;4.00;;
11524;SDS011;5819;49.648;8.330;2023-09-18T00:31:50;6.35;;;4.38;;
11524;SDS011;5819;49.648;8.330;2023-09-18T00:34:19;7.57;;;4.78;;
11524;SDS011;5819;49.648;8.330;2023-09-18T00:36:46;9.02;;;5.07;;
11524;SDS011;5819;49.648;8.330;2023-09-18T00:39:15;6.57;;;4.68;;
11524;SDS011;5819;49.648;8.330;2023-09-18T00:41:45;8.82;;;4.70;;
11524;SDS011;5819;49.648;8.330;2023-09-18T00:44:15;7.97;;;4.45;;
11524;SDS011;5819;49.648;8.330;2023-09-18T00:46:43;11.02;;;4.43;;
11524;SDS011;5819;49.648;8.330;2023-09-18T00:49:11;13.55;;;5.03;;
11524;SDS011;5819;49.648;8.330;2023-09-18T00:51:40;6.60;;;4.55;;
11524;SDS011;5819;49.648;8.330;2023-09-18T00:54:09;8.02;;;4.70;;
11524;SDS011;5819;49.648;8.330;2023-09-18T00:56:40;9.75;;;4.25;;
11524;SDS011;5819;49.648;8.330;2023-09-18T00:59:07;6.47;;;4.80;;
11524;SDS011;5819;49.648;8.330;2023-09-18T01:01:36;10.85;;;4.47;;
11524;SDS011;5819;49.648;8.330;2023-09-18T01:04:04;7.93;;;4.78;;
11524;SDS011;5819;49.648;8.330;2023-09-18T01:06:32;6.68;;;4.68;;
11524;SDS011;5819;49.648;8.330;2023-09-18T01:09:00;5.10;;;4.00;;
11524;SDS011;5819;49.648;8.330;2023-09-18T01:11:34;5.60;;;4.40;;
11524;SDS011;5819;49.648;8.330;2023-09-18T01:14:11;9.75;;;3.85;;
11524;SDS011;5819;49.648;8.330;2023-09-18T01:16:47;9.40;;;4.32;;
11524;SDS011;5819;49.648;8.330;2023-09-18T01:19:40;6.85;;;3.88;;
11524;SDS011;5819;49.648;8.330;2023-09-18T01:22:09;7.50;;;4.22;;
11524;SDS011;5819;49.648;8.330;2023-09-18T01:24:39;6.00;;;4.32;;
11524;SDS011;5819;49.648;8.330;2023-09-18T01:27:08;7.07;;;4.03;;
11524;SDS011;5819;49.648;8.330;2023-09-18T01:29:37;7.35;;;4.50;;
11524;SDS011;5819;49.648;8.330;2023-09-18T01:32:05;5.00;;;3.83;;
11524;SDS011;5819;49.648;8.330;2023-09-18T01:34:37;5.85;;;4.38;;
11524;SDS011;5819;49.648;8.330;2023-09-18T01:37:09;7.70;;;4.63;;
11524;SDS011;5819;49.648;8.330;2023-09-18T01:39:40;7.13;;;5.35;;
11524;SDS011;5819;49.648;8.330;2023-09-18T01:42:09;6.95;;;4.50;;
11524;SDS011;5819;49.648;8.330;2023-09-18T01:44:37;6.18;;;4.50;;
11524;SDS011;5819;49.648;8.330;2023-09-18T01:47:06;6.57;;;3.80;;
11524;SDS011;5819;49.648;8.330;2023-09-18T01:49:35;30.52;;;6.90;;
11524;SDS011;5819;49.648;8.330;2023-09-18T01:52:06;21.55;;;7.90;;
11524;SDS011;5819;49.648;8.330;2023-09-18T01:54:35;14.88;;;5.88;;
11524;SDS011;5819;49.648;8.330;2023-09-18T01:57:05;9.43;;;5.35;;
11524;SDS011;5819;49.648;8.330;2023-09-18T01:59:34;14.75;;;6.00;;
11524;SDS011;5819;49.648;8.330;2023-09-18T02:02:04;9.20;;;5.35;;
11524;SDS011;5819;49.648;8.330;2023-09-18T02:04:34;8.38;;;5.10;;
11524;SDS011;5819;49.648;8.330;2023-09-18T02:07:24;8.93;;;5.20;;
11524;SDS011;5819;49.648;8.330;2023-09-18T02:09:52;6.97;;;5.90;;
11524;SDS011;5819;49.648;8.330;2023-09-18T02:12:21;7.50;;;5.90;;
11524;SDS011;5819;49.648;8.330;2023-09-18T02:14:49;11.70;;;6.28;;
11524;SDS011;5819;49.648;8.330;2023-09-18T02:17:17;9.35;;;5.60;;
11524;SDS011;5819;49.648;8.330;2023-09-18T02:19:47;9.30;;;6.43;;
11524;SDS011;5819;49.648;8.330;2023-09-18T02:22:15;9.25;;;6.75;;
11524;SDS011;5819;49.648;8.330;2023-09-18T02:24:42;14.40;;;6.25;;
11524;SDS011;5819;49.648;8.330;2023-09-18T02:27:10;8.63;;;5.35;;
11524;SDS011;5819;49.648;8.330;2023-09-18T02:29:39;9.13;;;5.93;;
11524;SDS011;5819;49.648;8.330;2023-09-18T02:32:08;12.27;;;6.18;;
11524;SDS011;5819;49.648;8.330;2023-09-18T02:34:36;7.95;;;5.50;;
11524;SDS011;5819;49.648;8.330;2023-09-18T02:37:04;7.07;;;5.07;;
11524;SDS011;5819;49.648;8.330;2023-09-18T02:39:32;10.93;;;5.97;;
11524;SDS011;5819;49.648;8.330;2023-09-18T02:42:00;8.85;;;5.75;;
11524;SDS011;5819;49.648;8.330;2023-09-18T02:44:28;8.90;;;5.60;;
11524;SDS011;5819;49.648;8.330;2023-09-18T02:46:58;8.80;;;6.10;;
11524;SDS011;5819;49.648;8.330;2023-09-18T02:49:26;11.93;;;6.53;;
11524;SDS011;5819;49.648;8.330;2023-09-18T02:51:54;9.57;;;6.25;;
11524;SDS011;5819;49.648;8.330;2023-09-18T02:54:22;10.80;;;5.85;;
11524;SDS011;5819;49.648;8.330;2023-09-18T02:56:50;8.27;;;5.57;;
11524;SDS011;5819;49.648;8.330;2023-09-18T02:59:18;10.80;;;6.22;;
11524;SDS011;5819;49.648;8.330;2023-09-18T03:01:46;8.77;;;5.50;;
11524;SDS011;5819;49.648;8.330;2023-09-18T03:04:16;6.25;;;5.65;;
11524;SDS011;5819;49.648;8.330;2023-09-18T03:06:43;10.13;;;5.80;;
11524;SDS011;5819;49.648;8.330;2023-09-18T03:09:11;11.10;;;6.78;;
11524;SDS011;5819;49.648;8.330;2023-09-18T03:11:39;10.70;;;6.80;;
11524;SDS011;5819;49.648;8.330;2023-09-18T03:14:07;6.35;;;5.30;;
11524;SDS011;5819;49.648;8.330;2023-09-18T03:16:35;7.65;;;5.93;;
11524;SDS011;5819;49.648;8.330;2023-09-18T03:19:03;10.32;;;6.35;;
11524;SDS011;5819;49.648;8.330;2023-09-18T03:21:33;8.88;;;6.15;;
11524;SDS011;5819;49.648;8.330;2023-09-18T03:24:02;8.52;;;6.25;;
11524;SDS011;5819;49.648;8.330;2023-09-18T03:26:30;7.57;;;5.50;;
11524;SDS011;5819;49.648;8.330;2023-09-18T03:28:58;10.75;;;6.22;;
11524;SDS011;5819;49.648;8.330;2023-09-18T03:31:26;6.70;;;5.65;;
11524;SDS011;5819;49.648;8.330;2023-09-18T03:33:56;9.20;;;6.95;;
11524;SDS011;5819;49.648;8.330;2023-09-18T03:36:26;8.90;;;6.80;;
11524;SDS011;5819;49.648;8.330;2023-09-18T03:38:55;12.75;;;7.28;;
11524;SDS011;5819;49.648;8.330;2023-09-18T03:41:23;14.65;;;8.48;;
11524;SDS011;5819;49.648;8.330;2023-09-18T03:43:52;11.48;;;7.60;;
11524;SDS011;5819;49.648;8.330;2023-09-18T03:46:20;9.38;;;6.72;;
11524;SDS011;5819;49.648;8.330;2023-09-18T03:48:49;9.48;;;6.22;;
11524;SDS011;5819;49.648;8.330;2023-09-18T03:51:17;11.27;;;8.75;;
11524;SDS011;5819;49.648;8.330;2023-09-18T03:53:46;9.77;;;7.75;;
11524;SDS011;5819;49.648;8.330;2023-09-18T03:56:15;9.40;;;6.90;;
11524;SDS011;5819;49.648;8.330;2023-09-18T03:58:43;8.63;;;6.68;;
11524;SDS011;5819;49.648;8.330;2023-09-18T04:01:16;8.32;;;6.00;;
11524;SDS011;5819;49.648;8.330;2023-09-18T04:03:44;11.77;;;6.47;;
11524;SDS011;5819;49.648;8.330;2023-09-18T04:06:12;12.27;;;5.53;;
11524;SDS011;5819;49.648;8.330;2023-09-18T04:08:40;7.97;;;5.70;;
11524;SDS011;5819;49.648;8.330;2023-09-18T04:11:09;9.10;;;6.35;;
11524;SDS011;5819;49.648;8.330;2023-09-18T04:13:39;9.13;;;5.80;;
11524;SDS011;5819;49.648;8.330;2023-09-18T04:16:06;9.27;;;5.63;;
11524;SDS011;5819;49.648;8.330;2023-09-18T04:18:35;8.75;;;5.63;;
11524;SDS011;5819;49.648;8.330;2023-09-18T04:21:03;13.00;;;5.53;;
11524;SDS011;5819;49.648;8.330;2023-09-18T04:23:30;10.82;;;5.60;;
11524;SDS011;5819;49.648;8.330;2023-09-18T04:26:00;9.38;;;5.75;;
11524;SDS011;5819;49.648;8.330;2023-09-18T04:28:28;9.45;;;5.75;;
11524;SDS011;5819;49.648;8.330;2023-09-18T04:30:59;8.85;;;5.45;;
11524;SDS011;5819;49.648;8.330;2023-09-18T04:33:27;29.35;;;22.55;;
11524;SDS011;5819;49.648;8.330;2023-09-18T04:35:56;41.67;;;30.10;;
11524;SDS011;5819;49.648;8.330;2023-09-18T04:38:24;15.35;;;8.68;;
11524;SDS011;5819;49.648;8.330;2023-09-18T04:40:57;13.13;;;6.22;;
11524;SDS011;5819;49.648;8.330;2023-09-18T04:43:25;13.75;;;5.60;;
11524;SDS011;5819;49.648;8.330;2023-09-18T04:45:55;11.95;;;4.90;;
11524;SDS011;5819;49.648;8.330;2023-09-18T04:48:25;9.95;;;5.13;;
11524;SDS011;5819;49.648;8.330;2023-09-18T04:50:53;12.85;;;4.97;;
11524;SDS011;5819;49.648;8.330;2023-09-18T04:53:21;15.73;;;5.50;;
11524;SDS011;5819;49.648;8.330;2023-09-18T04:55:49;16.73;;;4.95;;
11524;SDS011;5819;49.648;8.330;2023-09-18T04:58:17;11.52;;;5.15;;
11524;SDS011;5819;49.648;8.330;2023-09-18T05:00:45;14.13;;;5.10;;
11524;SDS011;5819;49.648;8.330;2023-09-18T05:03:13;14.48;;;5.20;;
11524;SDS011;5819;49.648;8.330;2023-09-18T05:05:43;15.52;;;4.90;;
11524;SDS011;5819;49.648;8.330;2023-09-18T05:08:11;15.25;;;5.10;;
11524;SDS011;5819;49.648;8.330;2023-09-18T05:10:40;15.02;;;6.15;;
11524;SDS011;5819;49.648;8.330;2023-09-18T05:13:07;13.23;;;4.93;;
11524;SDS011;5819;49.648;8.330;2023-09-18T05:15:35;17.80;;;5.13;;
11524;SDS011;5819;49.648;8.330;2023-09-18T05:18:03;12.77;;;4.90;;
11524;SDS011;5819;49.648;8.330;2023-09-18T05:20:34;14.30;;;4.70;;
11524;SDS011;5819;49.648;8.330;2023-09-18T05:23:04;16.65;;;5.13;;
11524;SDS011;5819;49.648;8.330;2023-09-18T05:25:32;15.40;;;5.68;;
11524;SDS011;5819;49.648;8.330;2023-09-18T05:28:04;14.48;;;5.53;;
11524;SDS011;5819;49.648;8.330;2023-09-18T05:30:33;11.43;;;5.30;;
11524;SDS011;5819;49.648;8.330;2023-09-18T05:33:05;15.98;;;5.78;;
11524;SDS011;5819;49.648;8.330;2023-09-18T05:35:34;15.38;;;5.28;;
11524;SDS011;5819;49.648;8.330;2023-09-18T05:38:05;14.05;;;4.63;;
11524;SDS011;5819;49.648;8.330;2023-09-18T05:40:33;14.30;;;4.88;;
11524;SDS011;5819;49.648;8.330;2023-09-18T05:43:01;18.67;;;5.20;;
11524;SDS011;5819;49.648;8.330;2023-09-18T05:45:29;11.82;;;5.28;;
11524;SDS011;5819;49.648;8.330;2023-09-18T05:47:58;16.02;;;5.20;;
11524;SDS011;5819;49.648;8.330;2023-09-18T05:50:30;9.68;;;5.20;;
11524;SDS011;5819;49.648;8.330;2023-09-18T05:52:59;12.98;;;5.35;;
11524;SDS011;5819;49.648;8.330;2023-09-18T05:55:31;15.45;;;5.82;;
11524;SDS011;5819;49.648;8.330;2023-09-18T05:58:00;11.35;;;5.65;;
11524;SDS011;5819;49.648;8.330;2023-09-18T06:00:30;14.80;;;5.53;;
11524;SDS011;5819;49.648;8.330;2023-09-18T06:02:58;12.57;;;5.50;;
11524;SDS011;5819;49.648;8.330;2023-09-18T06:05:27;14.27;;;5.63;;
11524;SDS011;5819;49.648;8.330;2023-09-18T06:07:58;13.90;;;5.85;;
11524;SDS011;5819;49.648;8.330;2023-09-18T06:10:26;14.70;;;5.45;;
11524;SDS011;5819;49.648;8.330;2023-09-18T06:12:55;9.60;;;5.15;;
11524;SDS011;5819;49.648;8.330;2023-09-18T06:15:24;12.98;;;5.68;;
11524;SDS011;5819;49.648;8.330;2023-09-18T06:17:52;14.48;;;5.47;;
11524;SDS011;5819;49.648;8.330;2023-09-18T06:20:20;11.27;;;5.40;;
11524;SDS011;5819;49.648;8.330;2023-09-18T06:22:48;12.32;;;5.00;;
11524;SDS011;5819;49.648;8.330;2023-09-18T06:25:16;12.15;;;5.05;;
11524;SDS011;5819;49.648;8.330;2023-09-18T06:27:44;11.25;;;5.07;;
11524;SDS011;5819;49.648;8.330;2023-09-18T06:30:13;12.55;;;4.82;;
11524;SDS011;5819;49.648;8.330;2023-09-18T06:32:42;14.18;;;4.70;;
11524;SDS011;5819;49.648;8.330;2023-09-18T06:35:11;11.18;;;5.10;;
11524;SDS011;5819;49.648;8.330;2023-09-18T06:37:39;13.88;;;5.47;;
11524;SDS011;5819;49.648;8.330;2023-09-18T06:40:07;11.70;;;5.25;;
11524;SDS011;5819;49.648;8.330;2023-09-18T06:42:36;12.27;;;4.95;;
11524;SDS011;5819;49.648;8.330;2023-09-18T06:45:07;14.82;;;5.25;;
11524;SDS011;5819;49.648;8.330;2023-09-18T06:47:36;13.63;;;4.97;;
11524;SDS011;5819;49.648;8.330;2023-09-18T06:50:07;10.68;;;4.63;;
11524;SDS011;5819;49.648;8.330;2023-09-18T06:52:38;13.40;;;4.65;;
11524;SDS011;5819;49.648;8.330;2023-09-18T06:55:08;11.77;;;4.38;;
11524;SDS011;5819;49.648;8.330;2023-09-18T06:57:36;13.38;;;5.50;;
11524;SDS011;5819;49.648;8.330;2023-09-18T07:00:04;14.70;;;5.07;;
11524;SDS011;5819;49.648;8.330;2023-09-18T07:02:33;10.98;;;4.63;;
11524;SDS011;5819;49.648;8.330;2023-09-18T07:05:02;10.85;;;4.72;;
11524;SDS011;5819;49.648;8.330;2023-09-18T07:07:32;12.93;;;4.97;;
11524;SDS011;5819;49.648;8.330;2023-09-18T07:10:00;14.95;;;4.60;;
11524;SDS011;5819;49.648;8.330;2023-09-18T07:12:31;12.65;;;4.60;;
11524;SDS011;5819;49.648;8.330;2023-09-18T07:15:00;8.52;;;4.25;;
11524;SDS011;5819;49.648;8.330;2023-09-18T07:17:30;10.80;;;4.55;;
11524;SDS011;5819;49.648;8.330;2023-09-18T07:19:58;12.43;;;4.60;;
11524;SDS011;5819;49.648;8.330;2023-09-18T07:22:28;10.90;;;4.35;;
11524;SDS011;5819;49.648;8.330;2023-09-18T07:24:56;10.52;;;4.10;;
11524;SDS011;5819;49.648;8.330;2023-09-18T07:27:24;15.27;;;4.25;;
11524;SDS011;5819;49.648;8.330;2023-09-18T07:29:55;12.40;;;4.68;;
11524;SDS011;5819;49.648;8.330;2023-09-18T07:32:24;15.07;;;5.32;;
11524;SDS011;5819;49.648;8.330;2023-09-18T07:35:04;10.73;;;4.25;;
11524;SDS011;5819;49.648;8.330;2023-09-18T07:37:35;11.93;;;4.38;;
11524;SDS011;5819;49.648;8.330;2023-09-18T07:40:03;9.70;;;3.90;;
11524;SDS011;5819;49.648;8.330;2023-09-18T07:42:32;10.68;;;3.70;;
11524;SDS011;5819;49.648;8.330;2023-09-18T07:45:00;11.60;;;3.78;;
11524;SDS011;5819;49.648;8.330;2023-09-18T07:47:28;13.35;;;4.00;;
11524;SDS011;5819;49.648;8.330;2023-09-18T07:49:57;9.63;;;4.10;;
11524;SDS011;5819;49.648;8.330;2023-09-18T07:52:25;13.13;;;4.38;;
11524;SDS011;5819;49.648;8.330;2023-09-18T07:54:55;9.82;;;3.72;;
11524;SDS011;5819;49.648;8.330;2023-09-18T07:57:24;10.15;;;3.95;;
11524;SDS011;5819;49.648;8.330;2023-09-18T07:59:54;12.82;;;3.22;;
11524;SDS011;5819;49.648;8.330;2023-09-18T08:02:23;10.32;;;3.38;;
11524;SDS011;5819;49.648;8.330;2023-09-18T08:04:51;9.25;;;3.17;;
11524;SDS011;5819;49.648;8.330;2023-09-18T08:07:19;6.90;;;2.80;;
11524;SDS011;5819;49.648;8.330;2023-09-18T08:09:47;11.93;;;3.47;;
11524;SDS011;5819;49.648;8.330;2023-09-18T08:12:17;9.52;;;3.10;;
11524;SDS011;5819;49.648;8.330;2023-09-18T08:14:44;7.70;;;3.95;;
11524;SDS011;5819;49.648;8.330;2023-09-18T08:17:13;7.32;;;2.85;;
11524;SDS011;5819;49.648;8.330;2023-09-18T08:19:40;10.55;;;2.30;;
11524;SDS011;5819;49.648;8.330;2023-09-18T08:22:10;9.15;;;2.75;;
11524;SDS011;5819;49.648;8.330;2023-09-18T08:24:41;10.32;;;2.92;;
11524;SDS011;5819;49.648;8.330;2023-09-18T08:27:13;8.18;;;2.47;;
11524;SDS011;5819;49.648;8.330;2023-09-18T08:29:44;9.73;;;2.65;;
11524;SDS011;5819;49.648;8.330;2023-09-18T08:32:13;7.10;;;2.63;;
11524;SDS011;5819;49.648;8.330;2023-09-18T08:34:41;6.15;;;2.33;;
11524;SDS011;5819;49.648;8.330;2023-09-18T08:37:09;7.30;;;2.60;;
11524;SDS011;5819;49.648;8.330;2023-09-18T08:39:37;11.90;;;2.55;;
11524;SDS011;5819;49.648;8.330;2023-09-18T08:42:05;7.13;;;2.38;;
11524;SDS011;5819;49.648;8.330;2023-09-18T08:44:36;10.75;;;2.70;;
11524;SDS011;5819;49.648;8.330;2023-09-18T08:47:08;5.90;;;2.40;;
11524;SDS011;5819;49.648;8.330;2023-09-18T08:49:36;5.00;;;2.20;;
11524;SDS011;5819;49.648;8.330;2023-09-18T08:52:05;6.90;;;2.33;;
11524;SDS011;5819;49.648;8.330;2023-09-18T08:54:34;7.25;;;2.30;;
11524;SDS011;5819;49.648;8.330;2023-09-18T08:57:03;4.90;;;2.22;;
11524;SDS011;5819;49.648;8.330;2023-09-18T08:59:33;10.60;;;2.20;;
11524;SDS011;5819;49.648;8.330;2023-09-18T09:02:03;9.63;;;2.30;;
11524;SDS011;5819;49.648;8.330;2023-09-18T09:04:32;7.63;;;2.83;;
11524;SDS011;5819;49.648;8.330;2023-09-18T09:07:01;8.70;;;2.28;;
11524;SDS011;5819;49.648;8.330;2023-09-18T09:09:30;7.75;;;2.42;;
11524;SDS011;5819;49.648;8.330;2023-09-18T09:12:00;6.10;;;2.17;;
11524;SDS011;5819;49.648;8.330;2023-09-18T09:14:28;8.90;;;2.30;;
11524;SDS011;5819;49.648;8.330;2023-09-18T09:16:56;7.82;;;1.77;;
11524;SDS011;5819;49.648;8.330;2023-09-18T09:19:28;5.38;;;1.83;;
11524;SDS011;5819;49.648;8.330;2023-09-18T09:21:58;9.40;;;2.30;;
11524;SDS011;5819;49.648;8.330;2023-09-18T09:24:37;6.90;;;1.85;;
11524;SDS011;5819;49.648;8.330;2023-09-18T09:27:06;5.50;;;2.30;;
11524;SDS011;5819;49.648;8.330;2023-09-18T09:29:34;5.72;;;2.08;;
11524;SDS011;5819;49.648;8.330;2023-09-18T09:32:11;4.03;;;1.85;;
11524;SDS011;5819;49.648;8.330;2023-09-18T09:34:41;6.13;;;2.30;;
11524;SDS011;5819;49.648;8.330;2023-09-18T09:37:11;8.52;;;2.22;;
11524;SDS011;5819;49.648;8.330;2023-09-18T09:39:46;5.50;;;2.30;;
11524;SDS011;5819;49.648;8.330;2023-09-18T09:42:16;10.35;;;3.08;;
11524;SDS011;5819;49.648;8.330;2023-09-18T09:45:00;5.18;;;1.95;;
11524;SDS011;5819;49.648;8.330;2023-09-18T09:47:32;6.40;;;2.10;;
11524;SDS011;5819;49.648;8.330;2023-09-18T09:50:05;5.72;;;2.10;;
11524;SDS011;5819;49.648;8.330;2023-09-18T09:52:39;8.00;;;2.38;;
11524;SDS011;5819;49.648;8.330;2023-09-18T09:55:23;3.78;;;1.83;;
11524;SDS011;5819;49.648;8.330;2023-09-18T09:57:54;7.93;;;2.25;;
11524;SDS011;5819;49.648;8.330;2023-09-18T10:00:28;7.35;;;2.13;;
11524;SDS011;5819;49.648;8.330;2023-09-18T10:03:03;7.50;;;2.17;;
11524;SDS011;5819;49.648;8.330;2023-09-18T10:05:33;10.43;;;2.30;;
11524;SDS011;5819;49.648;8.330;2023-09-18T10:08:05;6.18;;;2.25;;
11524;SDS011;5819;49.648;8.330;2023-09-18T10:10:36;3.95;;;1.70;;
11524;SDS011;5819;49.648;8.330;2023-09-18T10:13:10;3.50;;;1.88;;
11524;SDS011;5819;49.648;8.330;2023-09-18T10:15:44;6.68;;;2.40;;
11524;SDS011;5819;49.648;8.330;2023-09-18T10:18:26;4.15;;;2.10;;
11524;SDS011;5819;49.648;8.330;2023-09-18T10:20:57;6.57;;;1.98;;
11524;SDS011;5819;49.648;8.330;2023-09-18T10:23:42;5.18;;;2.03;;
11524;SDS011;5819;49.648;8.330;2023-09-18T10:26:22;5.55;;;1.92;;
11524;SDS011;5819;49.648;8.330;2023-09-18T10:28:53;4.10;;;2.10;;
11524;SDS011;5819;49.648;8.330;2023-09-18T10:31:26;5.30;;;2.20;;
11524;SDS011;5819;49.648;8.330;2023-09-18T10:33:55;6.30;;;2.60;;
11524;SDS011;5819;49.648;8.330;2023-09-18T10:36:24;4.65;;;2.40;;
11524;SDS011;5819;49.648;8.330;2023-09-18T10:39:01;5.88;;;2.20;;
11524;SDS011;5819;49.648;8.330;2023-09-18T10:41:34;6.93;;;2.00;;
11524;SDS011;5819;49.648;8.330;2023-09-18T10:44:04;7.32;;;2.08;;
11524;SDS011;5819;49.648;8.330;2023-09-18T10:46:33;11.93;;;2.30;;
11524;SDS011;5819;49.648;8.330;2023-09-18T10:49:02;5.07;;;1.98;;
11524;SDS011;5819;49.648;8.330;2023-09-18T10:51:30;4.97;;;2.17;;
11524;SDS011;5819;49.648;8.330;2023-09-18T10:54:01;7.55;;;1.83;;
11524;SDS011;5819;49.648;8.330;2023-09-18T10:56:30;5.72;;;1.90;;
11524;SDS011;5819;49.648;8.330;2023-09-18T10:59:00;6.65;;;1.92;;
11524;SDS011;5819;49.648;8.330;2023-09-18T11:01:29;6.40;;;2.25;;
11524;SDS011;5819;49.648;8.330;2023-09-18T11:03:58;7.53;;;2.70;;
11524;SDS011;5819;49.648;8.330;2023-09-18T11:06:28;6.15;;;1.95;;
11524;SDS011;5819;49.648;8.330;2023-09-18T11:09:01;5.20;;;2.15;;
11524;SDS011;5819;49.648;8.330;2023-09-18T11:11:34;9.00;;;1.83;;
11524;SDS011;5819;49.648;8.330;2023-09-18T11:14:02;5.38;;;1.70;;
11524;SDS011;5819;49.648;8.330;2023-09-18T11:16:38;7.50;;;2.33;;
11524;SDS011;5819;49.648;8.330;2023-09-18T11:19:10;4.35;;;1.88;;
11524;SDS011;5819;49.648;8.330;2023-09-18T11:21:40;6.90;;;2.10;;
11524;SDS011;5819;49.648;8.330;2023-09-18T11:24:16;4.72;;;1.88;;
11524;SDS011;5819;49.648;8.330;2023-09-18T11:26:46;7.18;;;1.88;;
11524;SDS011;5819;49.648;8.330;2023-09-18T11:29:15;5.00;;;2.10;;
11524;SDS011;5819;49.648;8.330;2023-09-18T11:31:46;4.72;;;1.70;;
11524;SDS011;5819;49.648;8.330;2023-09-18T11:34:19;6.57;;;2.30;;
11524;SDS011;5819;49.648;8.330;2023-09-18T11:36:48;5.13;;;1.90;;
11524;SDS011;5819;49.648;8.330;2023-09-18T11:39:33;4.65;;;2.00;;
11524;SDS011;5819;49.648;8.330;2023-09-18T11:42:06;4.45;;;1.70;;
11524;SDS011;5819;49.648;8.330;2023-09-18T11:44:36;5.40;;;1.90;;
11524;SDS011;5819;49.648;8.330;2023-09-18T11:47:08;8.25;;;2.42;;
11524;SDS011;5819;49.648;8.330;2023-09-18T11:49:46;5.80;;;2.10;;
11524;SDS011;5819;49.648;8.330;2023-09-18T11:52:17;4.95;;;1.90;;
11524;SDS011;5819;49.648;8.330;2023-09-18T11:54:48;8.20;;;2.22;;
11524;SDS011;5819;49.648;8.330;2023-09-18T11:57:17;5.53;;;2.00;;
11524;SDS011;5819;49.648;8.330;2023-09-18T11:59:45;4.82;;;2.03;;
11524;SDS011;5819;49.648;8.330;2023-09-18T12:02:13;5.55;;;2.00;;
11524;SDS011;5819;49.648;8.330;2023-09-18T12:04:55;10.50;;;2.28;;
11524;SDS011;5819;49.648;8.330;2023-09-18T12:07:23;3.22;;;1.80;;
11524;SDS011;5819;49.648;8.330;2023-09-18T12:09:53;5.68;;;1.88;;
11524;SDS011;5819;49.648;8.330;2023-09-18T12:12:22;3.38;;;1.70;;
11524;SDS011;5819;49.648;8.330;2023-09-18T12:14:52;8.70;;;2.13;;
11524;SDS011;5819;49.648;8.330;2023-09-18T12:17:20;3.08;;;1.80;;
11524;SDS011;5819;49.648;8.330;2023-09-18T12:19:52;8.70;;;2.13;;
11524;SDS011;5819;49.648;8.330;2023-09-18T12:22:27;4.88;;;1.60;;
11524;SDS011;5819;49.648;8.330;2023-09-18T12:25:11;4.28;;;1.88;;
11524;SDS011;5819;49.648;8.330;2023-09-18T12:27:42;5.22;;;2.15;;
11524;SDS011;5819;49.648;8.330;2023-09-18T12:30:11;2.90;;;1.88;;
11524;SDS011;5819;49.648;8.330;2023-09-18T12:32:42;4.07;;;1.70;;
11524;SDS011;5819;49.648;8.330;2023-09-18T12:35:13;6.95;;;2.22;;
11524;SDS011;5819;49.648;8.330;2023-09-18T12:37:41;4.10;;;1.77;;
11524;SDS011;5819;49.648;8.330;2023-09-18T12:40:21;5.20;;;2.10;;
11524;SDS011;5819;49.648;8.330;2023-09-18T12:42:50;5.07;;;1.77;;
11524;SDS011;5819;49.648;8.330;2023-09-18T12:45:20;5.22;;;1.85;;
11524;SDS011;5819;49.648;8.330;2023-09-18T12:47:48;6.95;;;2.10;;
11524;SDS011;5819;49.648;8.330;2023-09-18T12:50:17;4.15;;;2.00;;
11524;SDS011;5819;49.648;8.330;2023-09-18T12:52:45;4.63;;;2.00;;
11524;SDS011;5819;49.648;8.330;2023-09-18T12:55:24;5.85;;;2.00;;
11524;SDS011;5819;49.648;8.330;2023-09-18T12:57:53;6.40;;;1.73;;
11524;SDS011;5819;49.648;8.330;2023-09-18T13:00:22;5.85;;;2.08;;
11524;SDS011;5819;49.648;8.330;2023-09-18T13:02:53;7.55;;;2.00;;
11524;SDS011;5819;49.648;8.330;2023-09-18T13:05:23;5.53;;;2.13;;
11524;SDS011;5819;49.648;8.330;2023-09-18T13:07:53;5.30;;;2.00;;
11524;SDS011;5819;49.648;8.330;2023-09-18T13:10:24;5.63;;;2.25;;
11524;SDS011;5819;49.648;8.330;2023-09-18T13:12:54;4.18;;;2.00;;
11524;SDS011;5819;49.648;8.330;2023-09-18T13:15:24;5.78;;;2.10;;
11524;SDS011;5819;49.648;8.330;2023-09-18T13:17:54;4.13;;;1.92;;
11524;SDS011;5819;49.648;8.330;2023-09-18T13:20:23;3.30;;;2.15;;
11524;SDS011;5819;49.648;8.330;2023-09-18T13:22:55;7.00;;;2.42;;
11524;SDS011;5819;49.648;8.330;2023-09-18T13:25:27;8.70;;;1.98;;
11524;SDS011;5819;49.648;8.330;2023-09-18T13:27:57;2.50;;;1.65;;
11524;SDS011;5819;49.648;8.330;2023-09-18T13:30:24;6.07;;;2.30;;
11524;SDS011;5819;49.648;8.330;2023-09-18T13:33:00;6.07;;;2.63;;
11524;SDS011;5819;49.648;8.330;2023-09-18T13:35:30;5.75;;;2.45;;
11524;SDS011;5819;49.648;8.330;2023-09-18T13:37:58;6.18;;;1.80;;
11524;SDS011;5819;49.648;8.330;2023-09-18T13:40:27;6.95;;;2.30;;
11524;SDS011;5819;49.648;8.330;2023-09-18T13:42:55;5.10;;;2.03;;
11524;SDS011;5819;49.648;8.330;2023-09-18T13:45:23;7.28;;;1.90;;
11524;SDS011;5819;49.648;8.330;2023-09-18T13:47:51;4.70;;;1.98;;
11524;SDS011;5819;49.648;8.330;2023-09-18T13:50:19;3.15;;;1.80;;
11524;SDS011;5819;49.648;8.330;2023-09-18T13:52:47;5.53;;;2.00;;
11524;SDS011;5819;49.648;8.330;2023-09-18T13:55:16;5.50;;;2.25;;
11524;SDS011;5819;49.648;8.330;2023-09-18T13:57:45;4.00;;;1.75;;
11524;SDS011;5819;49.648;8.330;2023-09-18T14:00:15;2.58;;;1.60;;
11524;SDS011;5819;49.648;8.330;2023-09-18T14:02:43;5.10;;;1.95;;
11524;SDS011;5819;49.648;8.330;2023-09-18T14:05:11;5.32;;;2.00;;
11524;SDS011;5819;49.648;8.330;2023-09-18T14:07:44;3.35;;;2.00;;
11524;SDS011;5819;49.648;8.330;2023-09-18T14:10:11;2.72;;;1.60;;
11524;SDS011;5819;49.648;8.330;2023-09-18T14:12:40;5.93;;;1.80;;
11524;SDS011;5819;49.648;8.330;2023-09-18T14:15:10;4.60;;;1.80;;
11524;SDS011;5819;49.648;8.330;2023-09-18T14:17:38;3.72;;;1.60;;
11524;SDS011;5819;49.648;8.330;2023-09-18T14:20:06;6.15;;;1.73;;
11524;SDS011;5819;49.648;8.330;2023-09-18T14:22:37;4.38;;;1.73;;
11524;SDS011;5819;49.648;8.330;2023-09-18T14:25:05;5.28;;;1.80;;
11524;SDS011;5819;49.648;8.330;2023-09-18T14:27:34;4.75;;;1.80;;
11524;SDS011;5819;49.648;8.330;2023-09-18T14:30:02;4.60;;;1.75;;
11524;SDS011;5819;49.648;8.330;2023-09-18T14:32:35;4.25;;;1.90;;
11524;SDS011;5819;49.648;8.330;2023-09-18T14:35:04;2.67;;;1.67;;
11524;SDS011;5819;49.648;8.330;2023-09-18T14:37:35;5.28;;;1.63;;
11524;SDS011;5819;49.648;8.330;2023-09-18T14:40:03;6.18;;;1.90;;
11524;SDS011;5819;49.648;8.330;2023-09-18T14:42:33;4.10;;;1.90;;
11524;SDS011;5819;49.648;8.330;2023-09-18T14:45:02;4.50;;;1.60;;
11524;SDS011;5819;49.648;8.330;2023-09-18T14:47:30;6.78;;;1.90;;
11524;SDS011;5819;49.648;8.330;2023-09-18T14:50:00;4.78;;;1.80;;
11524;SDS011;5819;49.648;8.330;2023-09-18T14:52:28;4.65;;;2.15;;
11524;SDS011;5819;49.648;8.330;2023-09-18T14:54:56;5.97;;;1.98;;
11524;SDS011;5819;49.648;8.330;2023-09-18T14:57:24;3.58;;;1.88;;
11524;SDS011;5819;49.648;8.330;2023-09-18T14:59:53;4.45;;;2.05;;
11524;SDS011;5819;49.648;8.330;2023-09-18T15:02:21;6.18;;;1.95;;
11524;SDS011;5819;49.648;8.330;2023-09-18T15:04:55;6.82;;;1.90;;
11524;SDS011;5819;49.648;8.330;2023-09-18T15:07:24;8.13;;;2.00;;
11524;SDS011;5819;49.648;8.330;2023-09-18T15:09:51;7.47;;;1.85;;
11524;SDS011;5819;49.648;8.330;2023-09-18T15:12:19;7.68;;;2.08;;
11524;SDS011;5819;49.648;8.330;2023-09-18T15:14:47;4.97;;;1.90;;